sensor_id;sensor_type;location;lat;lon;timestamp;temperature;humidity
33105;DHT22;19476;51.448;6.674;2023-01-01T00:01:11;19.60;42.10
33105;DHT22;19476;51.448;6.674;2023-01-01T00:03:38;19.60;42.20
33105;DHT22;19476;51.448;6.674;2023-01-01T00:06:05;19.60;42.20
33105;DHT22;19476;51.448;6.674;2023-01-01T00:08:31;19.60;42.00
33105;DHT22;19476;51.448;6.674;2023-01-01T00:11:03;19.60;42.00
33105;DHT22;19476;51.448;6.674;2023-01-01T00:13:29;19.60;41.80
33105;DHT22;19476;51.448;6.674;2023-01-01T00:15:55;19.60;42.20
33105;DHT22;19476;51.448;6.674;2023-01-01T00:18:39;19.60;42.10
33105;DHT22;19476;51.448;6.674;2023-01-01T00:21:13;19.60;41.90
33105;DHT22;19476;51.448;6.674;2023-01-01T00:23:56;19.60;42.00
33105;DHT22;19476;51.448;6.674;2023-01-01T00:26:22;19.60;42.10
33105;DHT22;19476;51.448;6.674;2023-01-01T00:28:48;19.60;41.70
33105;DHT22;19476;51.448;6.674;2023-01-01T00:31:22;19.60;41.70
33105;DHT22;19476;51.448;6.674;2023-01-01T00:33:57;19.60;41.20
33105;DHT22;19476;51.448;6.674;2023-01-01T00:36:31;19.60;41.20
33105;DHT22;19476;51.448;6.674;2023-01-01T00:39:19;19.60;41.80
33105;DHT22;19476;51.448;6.674;2023-01-01T00:42:17;19.60;41.40
33105;DHT22;19476;51.448;6.674;2023-01-01T00:44:51;19.60;40.90
33105;DHT22;19476;51.448;6.674;2023-01-01T00:47:20;19.60;41.40
33105;DHT22;19476;51.448;6.674;2023-01-01T00:49:46;19.60;41.50
33105;DHT22;19476;51.448;6.674;2023-01-01T00:52:27;19.60;41.40
33105;DHT22;19476;51.448;6.674;2023-01-01T01:05:33;19.50;39.90
33105;DHT22;19476;51.448;6.674;2023-01-01T01:11:41;19.50;39.50
33105;DHT22;19476;51.448;6.674;2023-01-01T01:14:07;19.50;40.00
33105;DHT22;19476;51.448;6.674;2023-01-01T01:16:34;19.40;39.90
33105;DHT22;19476;51.448;6.674;2023-01-01T01:19:02;19.50;39.90
33105;DHT22;19476;51.448;6.674;2023-01-01T01:21:30;19.40;40.00
33105;DHT22;19476;51.448;6.674;2023-01-01T01:23:58;19.40;39.80
33105;DHT22;19476;51.448;6.674;2023-01-01T01:26:27;19.50;39.50
33105;DHT22;19476;51.448;6.674;2023-01-01T01:28:53;19.50;39.80
33105;DHT22;19476;51.448;6.674;2023-01-01T01:31:21;19.40;39.50
33105;DHT22;19476;51.448;6.674;2023-01-01T01:33:48;19.40;39.10
33105;DHT22;19476;51.448;6.674;2023-01-01T01:36:14;19.40;39.40
33105;DHT22;19476;51.448;6.674;2023-01-01T01:38:40;19.40;39.10
33105;DHT22;19476;51.448;6.674;2023-01-01T01:41:07;19.40;38.80
33105;DHT22;19476;51.448;6.674;2023-01-01T01:46:13;19.40;38.60
33105;DHT22;19476;51.448;6.674;2023-01-01T01:48:43;19.40;38.10
33105;DHT22;19476;51.448;6.674;2023-01-01T01:51:12;19.40;38.50
33105;DHT22;19476;51.448;6.674;2023-01-01T01:53:43;19.40;38.70
33105;DHT22;19476;51.448;6.674;2023-01-01T01:56:15;19.40;38.50
33105;DHT22;19476;51.448;6.674;2023-01-01T01:58:43;19.30;38.90
33105;DHT22;19476;51.448;6.674;2023-01-01T02:01:09;19.30;38.80
33105;DHT22;19476;51.448;6.674;2023-01-01T02:03:57;19.30;38.60
33105;DHT22;19476;51.448;6.674;2023-01-01T02:06:25;19.30;38.20
33105;DHT22;19476;51.448;6.674;2023-01-01T02:08:51;19.30;38.70
33105;DHT22;19476;51.448;6.674;2023-01-01T02:11:17;19.30;39.30
33105;DHT22;19476;51.448;6.674;2023-01-01T02:13:43;19.30;38.80
33105;DHT22;19476;51.448;6.674;2023-01-01T02:19:06;19.20;38.50
33105;DHT22;19476;51.448;6.674;2023-01-01T02:22:14;19.20;38.60
33105;DHT22;19476;51.448;6.674;2023-01-01T02:25:03;19.20;39.10
33105;DHT22;19476;51.448;6.674;2023-01-01T02:30:21;19.20;38.80
33105;DHT22;19476;51.448;6.674;2023-01-01T02:32:56;19.20;39.00
33105;DHT22;19476;51.448;6.674;2023-01-01T02:35:41;19.10;38.90
33105;DHT22;19476;51.448;6.674;2023-01-01T02:38:26;19.10;38.40
33105;DHT22;19476;51.448;6.674;2023-01-01T02:41:18;19.10;38.70
33105;DHT22;19476;51.448;6.674;2023-01-01T02:43:45;19.10;38.80
33105;DHT22;19476;51.448;6.674;2023-01-01T02:46:12;19.00;39.10
33105;DHT22;19476;51.448;6.674;2023-01-01T02:53:58;19.00;39.30
33105;DHT22;19476;51.448;6.674;2023-01-01T03:02:18;19.00;39.20
33105;DHT22;19476;51.448;6.674;2023-01-01T03:16:07;18.90;39.70
33105;DHT22;19476;51.448;6.674;2023-01-01T03:19:04;18.90;40.00
33105;DHT22;19476;51.448;6.674;2023-01-01T03:21:42;18.90;40.00
33105;DHT22;19476;51.448;6.674;2023-01-01T03:24:19;18.90;40.20
33105;DHT22;19476;51.448;6.674;2023-01-01T03:26:50;18.90;40.30
33105;DHT22;19476;51.448;6.674;2023-01-01T03:29:17;18.80;40.30
33105;DHT22;19476;51.448;6.674;2023-01-01T03:31:47;18.80;40.40
33105;DHT22;19476;51.448;6.674;2023-01-01T03:34:20;18.80;40.60
33105;DHT22;19476;51.448;6.674;2023-01-01T03:36:50;18.50;40.30
33105;DHT22;19476;51.448;6.674;2023-01-01T03:39:23;18.80;40.60
33105;DHT22;19476;51.448;6.674;2023-01-01T03:42:10;18.80;40.60
33105;DHT22;19476;51.448;6.674;2023-01-01T03:44:43;18.80;40.60
33105;DHT22;19476;51.448;6.674;2023-01-01T03:47:10;18.80;40.80
33105;DHT22;19476;51.448;6.674;2023-01-01T03:49:36;18.80;40.90
33105;DHT22;19476;51.448;6.674;2023-01-01T03:57:43;18.80;41.20
33105;DHT22;19476;51.448;6.674;2023-01-01T04:00:13;18.80;41.40
33105;DHT22;19476;51.448;6.674;2023-01-01T04:02:45;18.80;41.50
33105;DHT22;19476;51.448;6.674;2023-01-01T04:05:13;18.80;41.70
33105;DHT22;19476;51.448;6.674;2023-01-01T04:07:40;18.60;41.70
33105;DHT22;19476;51.448;6.674;2023-01-01T04:10:06;18.80;41.90
33105;DHT22;19476;51.448;6.674;2023-01-01T04:12:52;18.70;41.80
33105;DHT22;19476;51.448;6.674;2023-01-01T04:15:23;18.70;41.90
33105;DHT22;19476;51.448;6.674;2023-01-01T04:17:49;18.70;42.10
33105;DHT22;19476;51.448;6.674;2023-01-01T04:20:16;18.70;42.20
33105;DHT22;19476;51.448;6.674;2023-01-01T04:22:42;18.70;42.20
33105;DHT22;19476;51.448;6.674;2023-01-01T04:25:09;18.70;42.20
33105;DHT22;19476;51.448;6.674;2023-01-01T04:27:36;18.70;42.50
33105;DHT22;19476;51.448;6.674;2023-01-01T04:30:03;18.70;42.50
33105;DHT22;19476;51.448;6.674;2023-01-01T04:32:29;18.70;42.60
33105;DHT22;19476;51.448;6.674;2023-01-01T04:34:55;18.70;42.60
33105;DHT22;19476;51.448;6.674;2023-01-01T04:37:20;18.70;42.70
33105;DHT22;19476;51.448;6.674;2023-01-01T04:39:46;18.70;42.90
33105;DHT22;19476;51.448;6.674;2023-01-01T04:42:12;18.70;42.90
33105;DHT22;19476;51.448;6.674;2023-01-01T04:44:38;18.70;43.00
33105;DHT22;19476;51.448;6.674;2023-01-01T04:47:04;18.70;43.10
33105;DHT22;19476;51.448;6.674;2023-01-01T04:49:30;18.70;43.40
33105;DHT22;19476;51.448;6.674;2023-01-01T04:51:55;18.60;43.60
33105;DHT22;19476;51.448;6.674;2023-01-01T04:54:21;18.60;43.80
33105;DHT22;19476;51.448;6.674;2023-01-01T04:56:47;18.60;43.90
33105;DHT22;19476;51.448;6.674;2023-01-01T04:59:12;18.60;44.10
33105;DHT22;19476;51.448;6.674;2023-01-01T05:01:38;18.60;44.10
33105;DHT22;19476;51.448;6.674;2023-01-01T05:04:04;18.60;44.20
33105;DHT22;19476;51.448;6.674;2023-01-01T05:06:30;18.60;44.20
33105;DHT22;19476;51.448;6.674;2023-01-01T05:08:56;18.60;44.30
33105;DHT22;19476;51.448;6.674;2023-01-01T05:11:27;18.50;44.30
33105;DHT22;19476;51.448;6.674;2023-01-01T05:13:55;18.50;44.30
33105;DHT22;19476;51.448;6.674;2023-01-01T05:16:24;18.60;44.30
33105;DHT22;19476;51.448;6.674;2023-01-01T05:18:50;18.50;44.40
33105;DHT22;19476;51.448;6.674;2023-01-01T05:21:18;18.50;44.40
33105;DHT22;19476;51.448;6.674;2023-01-01T05:23:45;18.60;44.40
33105;DHT22;19476;51.448;6.674;2023-01-01T05:28:38;18.60;44.40
33105;DHT22;19476;51.448;6.674;2023-01-01T05:31:09;18.60;44.50
33105;DHT22;19476;51.448;6.674;2023-01-01T05:33:35;18.50;44.30
33105;DHT22;19476;51.448;6.674;2023-01-01T05:36:02;18.50;44.40
33105;DHT22;19476;51.448;6.674;2023-01-01T05:38:28;18.50;44.40
33105;DHT22;19476;51.448;6.674;2023-01-01T05:40:55;18.50;44.30
33105;DHT22;19476;51.448;6.674;2023-01-01T05:43:20;18.50;44.30
33105;DHT22;19476;51.448;6.674;2023-01-01T05:45:46;18.50;44.40
33105;DHT22;19476;51.448;6.674;2023-01-01T05:48:12;18.50;44.50
33105;DHT22;19476;51.448;6.674;2023-01-01T05:50:38;18.50;44.50
33105;DHT22;19476;51.448;6.674;2023-01-01T05:53:04;18.50;44.50
33105;DHT22;19476;51.448;6.674;2023-01-01T05:55:29;18.50;44.60
33105;DHT22;19476;51.448;6.674;2023-01-01T05:57:56;18.50;44.60
33105;DHT22;19476;51.448;6.674;2023-01-01T06:00:22;18.50;44.50
33105;DHT22;19476;51.448;6.674;2023-01-01T06:02:48;18.50;44.60
33105;DHT22;19476;51.448;6.674;2023-01-01T06:05:16;18.50;44.60
33105;DHT22;19476;51.448;6.674;2023-01-01T06:07:42;18.50;44.40
33105;DHT22;19476;51.448;6.674;2023-01-01T06:10:08;18.50;44.50
33105;DHT22;19476;51.448;6.674;2023-01-01T06:12:34;18.50;44.60
33105;DHT22;19476;51.448;6.674;2023-01-01T06:15:00;18.40;44.50
33105;DHT22;19476;51.448;6.674;2023-01-01T06:17:25;18.50;44.70
33105;DHT22;19476;51.448;6.674;2023-01-01T06:19:51;18.40;44.60
33105;DHT22;19476;51.448;6.674;2023-01-01T06:22:17;18.50;44.70
33105;DHT22;19476;51.448;6.674;2023-01-01T06:24:42;18.40;44.60
33105;DHT22;19476;51.448;6.674;2023-01-01T06:27:08;18.40;44.60
33105;DHT22;19476;51.448;6.674;2023-01-01T06:29:34;18.40;44.80
33105;DHT22;19476;51.448;6.674;2023-01-01T06:32:00;18.40;44.80
33105;DHT22;19476;51.448;6.674;2023-01-01T06:34:25;18.40;44.80
33105;DHT22;19476;51.448;6.674;2023-01-01T06:36:51;18.40;44.90
33105;DHT22;19476;51.448;6.674;2023-01-01T06:39:17;18.40;44.90
33105;DHT22;19476;51.448;6.674;2023-01-01T06:41:42;18.40;45.00
33105;DHT22;19476;51.448;6.674;2023-01-01T06:44:08;18.40;45.00
33105;DHT22;19476;51.448;6.674;2023-01-01T06:46:35;18.40;45.00
33105;DHT22;19476;51.448;6.674;2023-01-01T06:49:04;18.40;45.20
33105;DHT22;19476;51.448;6.674;2023-01-01T06:51:33;18.40;45.20
33105;DHT22;19476;51.448;6.674;2023-01-01T06:54:02;18.40;45.30
33105;DHT22;19476;51.448;6.674;2023-01-01T06:56:28;18.40;45.50
33105;DHT22;19476;51.448;6.674;2023-01-01T06:58:54;18.40;45.70
33105;DHT22;19476;51.448;6.674;2023-01-01T07:01:23;18.40;45.70
33105;DHT22;19476;51.448;6.674;2023-01-01T07:03:54;18.40;45.90
33105;DHT22;19476;51.448;6.674;2023-01-01T07:06:21;18.40;45.90
33105;DHT22;19476;51.448;6.674;2023-01-01T07:08:47;18.30;45.90
33105;DHT22;19476;51.448;6.674;2023-01-01T07:11:13;18.40;45.90
33105;DHT22;19476;51.448;6.674;2023-01-01T07:13:39;18.40;46.00
33105;DHT22;19476;51.448;6.674;2023-01-01T07:16:05;18.30;46.20
33105;DHT22;19476;51.448;6.674;2023-01-01T07:18:31;18.30;46.50
33105;DHT22;19476;51.448;6.674;2023-01-01T07:20:58;18.30;46.70
33105;DHT22;19476;51.448;6.674;2023-01-01T07:23:26;18.30;47.00
33105;DHT22;19476;51.448;6.674;2023-01-01T07:25:53;18.30;47.40
33105;DHT22;19476;51.448;6.674;2023-01-01T07:28:20;18.30;47.60
33105;DHT22;19476;51.448;6.674;2023-01-01T07:30:46;18.30;48.00
33105;DHT22;19476;51.448;6.674;2023-01-01T07:33:15;18.20;48.00
33105;DHT22;19476;51.448;6.674;2023-01-01T07:35:41;18.20;48.30
33105;DHT22;19476;51.448;6.674;2023-01-01T07:38:09;18.20;48.60
33105;DHT22;19476;51.448;6.674;2023-01-01T07:40:35;18.10;48.80
33105;DHT22;19476;51.448;6.674;2023-01-01T07:43:01;18.10;49.00
33105;DHT22;19476;51.448;6.674;2023-01-01T07:45:26;18.10;49.40
33105;DHT22;19476;51.448;6.674;2023-01-01T07:47:54;18.00;49.70
33105;DHT22;19476;51.448;6.674;2023-01-01T07:50:21;18.00;49.70
33105;DHT22;19476;51.448;6.674;2023-01-01T07:52:47;18.00;49.80
33105;DHT22;19476;51.448;6.674;2023-01-01T07:55:14;17.90;50.00
33105;DHT22;19476;51.448;6.674;2023-01-01T07:57:41;17.90;50.40
33105;DHT22;19476;51.448;6.674;2023-01-01T08:00:09;17.80;50.40
33105;DHT22;19476;51.448;6.674;2023-01-01T08:03:12;17.80;50.80
33105;DHT22;19476;51.448;6.674;2023-01-01T08:05:38;17.80;51.00
33105;DHT22;19476;51.448;6.674;2023-01-01T08:08:04;17.80;50.70
33105;DHT22;19476;51.448;6.674;2023-01-01T08:10:30;17.70;50.80
33105;DHT22;19476;51.448;6.674;2023-01-01T08:13:00;17.70;50.90
33105;DHT22;19476;51.448;6.674;2023-01-01T08:15:26;17.70;51.30
33105;DHT22;19476;51.448;6.674;2023-01-01T08:17:58;17.70;51.10
33105;DHT22;19476;51.448;6.674;2023-01-01T08:20:26;17.70;51.20
33105;DHT22;19476;51.448;6.674;2023-01-01T08:22:52;17.70;51.20
33105;DHT22;19476;51.448;6.674;2023-01-01T08:25:18;17.70;51.20
33105;DHT22;19476;51.448;6.674;2023-01-01T08:27:44;17.70;51.20
33105;DHT22;19476;51.448;6.674;2023-01-01T08:30:11;17.60;51.20
33105;DHT22;19476;51.448;6.674;2023-01-01T08:32:38;17.70;51.50
33105;DHT22;19476;51.448;6.674;2023-01-01T08:35:04;17.60;51.40
33105;DHT22;19476;51.448;6.674;2023-01-01T08:37:30;17.60;51.40
33105;DHT22;19476;51.448;6.674;2023-01-01T08:39:56;17.70;51.40
33105;DHT22;19476;51.448;6.674;2023-01-01T08:42:22;17.70;51.50
33105;DHT22;19476;51.448;6.674;2023-01-01T08:44:47;17.60;51.50
33105;DHT22;19476;51.448;6.674;2023-01-01T08:47:22;17.60;51.50
33105;DHT22;19476;51.448;6.674;2023-01-01T08:49:49;17.60;51.90
33105;DHT22;19476;51.448;6.674;2023-01-01T08:52:15;17.60;51.60
33105;DHT22;19476;51.448;6.674;2023-01-01T08:54:41;17.60;51.70
33105;DHT22;19476;51.448;6.674;2023-01-01T08:57:07;17.70;51.70
33105;DHT22;19476;51.448;6.674;2023-01-01T08:59:33;17.70;52.20
33105;DHT22;19476;51.448;6.674;2023-01-01T09:01:59;17.60;51.70
33105;DHT22;19476;51.448;6.674;2023-01-01T09:04:25;17.60;51.70
33105;DHT22;19476;51.448;6.674;2023-01-01T09:06:51;17.60;51.80
33105;DHT22;19476;51.448;6.674;2023-01-01T09:09:17;17.60;51.80
33105;DHT22;19476;51.448;6.674;2023-01-01T09:12:09;17.60;52.00
33105;DHT22;19476;51.448;6.674;2023-01-01T09:14:35;17.60;52.20
33105;DHT22;19476;51.448;6.674;2023-01-01T09:17:01;17.60;52.50
33105;DHT22;19476;51.448;6.674;2023-01-01T09:19:27;17.60;52.10
33105;DHT22;19476;51.448;6.674;2023-01-01T09:21:53;17.60;52.10
33105;DHT22;19476;51.448;6.674;2023-01-01T09:24:19;17.60;52.10
33105;DHT22;19476;51.448;6.674;2023-01-01T09:26:45;17.60;52.60
33105;DHT22;19476;51.448;6.674;2023-01-01T09:29:11;17.60;52.10
33105;DHT22;19476;51.448;6.674;2023-01-01T09:31:36;17.60;52.10
33105;DHT22;19476;51.448;6.674;2023-01-01T09:34:02;17.60;52.10
33105;DHT22;19476;51.448;6.674;2023-01-01T09:36:30;17.60;52.00
33105;DHT22;19476;51.448;6.674;2023-01-01T09:38:56;17.60;52.10
33105;DHT22;19476;51.448;6.674;2023-01-01T09:42:01;17.60;52.10
33105;DHT22;19476;51.448;6.674;2023-01-01T09:47:41;17.60;52.30
33105;DHT22;19476;51.448;6.674;2023-01-01T09:50:18;17.60;52.40
33105;DHT22;19476;51.448;6.674;2023-01-01T09:52:55;17.60;52.20
33105;DHT22;19476;51.448;6.674;2023-01-01T09:55:58;17.60;52.30
33105;DHT22;19476;51.448;6.674;2023-01-01T09:58:33;17.60;52.30
33105;DHT22;19476;51.448;6.674;2023-01-01T10:01:19;17.60;52.30
33105;DHT22;19476;51.448;6.674;2023-01-01T10:14:16;17.60;52.30
33105;DHT22;19476;51.448;6.674;2023-01-01T10:16:51;17.60;52.60
33105;DHT22;19476;51.448;6.674;2023-01-01T10:19:23;17.60;52.60
33105;DHT22;19476;51.448;6.674;2023-01-01T10:21:57;17.60;52.50
33105;DHT22;19476;51.448;6.674;2023-01-01T10:24:36;17.60;52.50
33105;DHT22;19476;51.448;6.674;2023-01-01T10:27:04;17.70;52.50
33105;DHT22;19476;51.448;6.674;2023-01-01T10:31:56;17.70;52.40
33105;DHT22;19476;51.448;6.674;2023-01-01T10:34:24;17.70;52.40
33105;DHT22;19476;51.448;6.674;2023-01-01T10:36:53;17.70;52.80
33105;DHT22;19476;51.448;6.674;2023-01-01T10:39:20;17.70;52.50
33105;DHT22;19476;51.448;6.674;2023-01-01T10:41:47;17.70;52.40
33105;DHT22;19476;51.448;6.674;2023-01-01T10:44:15;17.70;52.40
33105;DHT22;19476;51.448;6.674;2023-01-01T10:46:46;17.80;52.50
33105;DHT22;19476;51.448;6.674;2023-01-01T10:49:14;17.80;52.60
33105;DHT22;19476;51.448;6.674;2023-01-01T10:51:44;17.80;52.40
33105;DHT22;19476;51.448;6.674;2023-01-01T10:54:34;17.80;52.50
33105;DHT22;19476;51.448;6.674;2023-01-01T10:57:19;17.90;52.60
33105;DHT22;19476;51.448;6.674;2023-01-01T10:59:53;17.90;52.50
33105;DHT22;19476;51.448;6.674;2023-01-01T11:02:26;17.90;52.30
33105;DHT22;19476;51.448;6.674;2023-01-01T11:05:18;17.90;52.30
33105;DHT22;19476;51.448;6.674;2023-01-01T11:07:45;17.90;52.40
33105;DHT22;19476;51.448;6.674;2023-01-01T11:10:22;17.90;52.20
33105;DHT22;19476;51.448;6.674;2023-01-01T11:12:48;18.00;52.20
33105;DHT22;19476;51.448;6.674;2023-01-01T11:18:05;18.00;52.10
33105;DHT22;19476;51.448;6.674;2023-01-01T11:20:32;18.00;52.10
33105;DHT22;19476;51.448;6.674;2023-01-01T11:22:58;18.00;52.00
33105;DHT22;19476;51.448;6.674;2023-01-01T11:25:59;18.10;52.00
33105;DHT22;19476;51.448;6.674;2023-01-01T11:28:25;18.10;52.00
33105;DHT22;19476;51.448;6.674;2023-01-01T11:33:25;18.10;51.90
33105;DHT22;19476;51.448;6.674;2023-01-01T11:35:55;18.10;52.00
33105;DHT22;19476;51.448;6.674;2023-01-01T11:38:23;18.10;51.90
33105;DHT22;19476;51.448;6.674;2023-01-01T11:40:54;18.10;51.80
33105;DHT22;19476;51.448;6.674;2023-01-01T11:43:23;18.10;51.80
33105;DHT22;19476;51.448;6.674;2023-01-01T11:45:51;18.10;51.90
33105;DHT22;19476;51.448;6.674;2023-01-01T11:48:29;18.10;51.80
33105;DHT22;19476;51.448;6.674;2023-01-01T11:51:06;18.10;51.80
33105;DHT22;19476;51.448;6.674;2023-01-01T11:53:38;18.10;51.70
33105;DHT22;19476;51.448;6.674;2023-01-01T11:56:14;18.10;51.60
33105;DHT22;19476;51.448;6.674;2023-01-01T12:06:35;18.10;51.50
33105;DHT22;19476;51.448;6.674;2023-01-01T12:09:23;18.10;51.50
33105;DHT22;19476;51.448;6.674;2023-01-01T12:12:02;18.10;51.30
33105;DHT22;19476;51.448;6.674;2023-01-01T12:14:47;18.10;51.40
33105;DHT22;19476;51.448;6.674;2023-01-01T12:17:21;18.10;51.40
33105;DHT22;19476;51.448;6.674;2023-01-01T12:20:13;18.10;51.20
33105;DHT22;19476;51.448;6.674;2023-01-01T12:22:41;18.10;51.30
33105;DHT22;19476;51.448;6.674;2023-01-01T12:25:12;18.10;51.30
33105;DHT22;19476;51.448;6.674;2023-01-01T12:28:09;18.10;51.30
33105;DHT22;19476;51.448;6.674;2023-01-01T12:33:44;18.10;51.30
33105;DHT22;19476;51.448;6.674;2023-01-01T12:41:56;18.10;51.20
33105;DHT22;19476;51.448;6.674;2023-01-01T12:52:39;18.10;51.10
33105;DHT22;19476;51.448;6.674;2023-01-01T12:58:05;18.10;51.10
33105;DHT22;19476;51.448;6.674;2023-01-01T13:00:36;18.10;51.10
33105;DHT22;19476;51.448;6.674;2023-01-01T13:03:48;18.10;51.00
33105;DHT22;19476;51.448;6.674;2023-01-01T13:05:56;18.10;51.10
33105;DHT22;19476;51.448;6.674;2023-01-01T13:08:22;18.10;51.00
33105;DHT22;19476;51.448;6.674;2023-01-01T13:10:52;18.10;51.00
33105;DHT22;19476;51.448;6.674;2023-01-01T13:13:19;18.10;51.00
33105;DHT22;19476;51.448;6.674;2023-01-01T13:15:50;18.10;51.00
33105;DHT22;19476;51.448;6.674;2023-01-01T13:18:35;18.10;50.90
33105;DHT22;19476;51.448;6.674;2023-01-01T13:21:19;18.10;50.90
33105;DHT22;19476;51.448;6.674;2023-01-01T13:23:47;18.10;51.00
33105;DHT22;19476;51.448;6.674;2023-01-01T13:40:03;18.00;51.00
33105;DHT22;19476;51.448;6.674;2023-01-01T13:45:25;18.00;51.20
33105;DHT22;19476;51.448;6.674;2023-01-01T13:56:24;17.90;51.00
33105;DHT22;19476;51.448;6.674;2023-01-01T14:04:42;17.90;51.00
33105;DHT22;19476;51.448;6.674;2023-01-01T14:07:19;17.90;51.00
33105;DHT22;19476;51.448;6.674;2023-01-01T14:09:46;17.90;51.00
33105;DHT22;19476;51.448;6.674;2023-01-01T14:12:17;17.90;50.90
33105;DHT22;19476;51.448;6.674;2023-01-01T14:14:44;17.90;51.00
33105;DHT22;19476;51.448;6.674;2023-01-01T14:17:14;17.90;50.90
33105;DHT22;19476;51.448;6.674;2023-01-01T14:19:41;17.80;50.80
33105;DHT22;19476;51.448;6.674;2023-01-01T14:22:08;17.80;50.90
33105;DHT22;19476;51.448;6.674;2023-01-01T14:24:42;17.80;51.00
33105;DHT22;19476;51.448;6.674;2023-01-01T14:27:17;17.80;51.00
33105;DHT22;19476;51.448;6.674;2023-01-01T14:29:46;17.80;51.00
33105;DHT22;19476;51.448;6.674;2023-01-01T14:32:21;17.80;51.00
33105;DHT22;19476;51.448;6.674;2023-01-01T14:34:57;17.80;51.10
33105;DHT22;19476;51.448;6.674;2023-01-01T14:37:25;17.80;51.10
33105;DHT22;19476;51.448;6.674;2023-01-01T14:40:06;17.80;51.00
33105;DHT22;19476;51.448;6.674;2023-01-01T14:42:33;17.80;51.10
33105;DHT22;19476;51.448;6.674;2023-01-01T14:45:00;17.80;51.10
33105;DHT22;19476;51.448;6.674;2023-01-01T14:47:29;17.80;51.00
33105;DHT22;19476;51.448;6.674;2023-01-01T14:50:03;17.80;51.20
33105;DHT22;19476;51.448;6.674;2023-01-01T14:52:31;17.80;51.10
33105;DHT22;19476;51.448;6.674;2023-01-01T14:54:59;17.80;51.10
33105;DHT22;19476;51.448;6.674;2023-01-01T14:57:30;17.80;51.10
33105;DHT22;19476;51.448;6.674;2023-01-01T14:59:56;17.80;51.10
33105;DHT22;19476;51.448;6.674;2023-01-01T15:02:33;17.80;51.00
33105;DHT22;19476;51.448;6.674;2023-01-01T15:07:58;17.80;51.10
33105;DHT22;19476;51.448;6.674;2023-01-01T15:10:26;17.80;51.10
33105;DHT22;19476;51.448;6.674;2023-01-01T15:12:53;17.80;51.10
33105;DHT22;19476;51.448;6.674;2023-01-01T15:18:03;17.80;51.20
33105;DHT22;19476;51.448;6.674;2023-01-01T15:20:29;17.70;51.10
33105;DHT22;19476;51.448;6.674;2023-01-01T15:22:55;17.70;51.10
33105;DHT22;19476;51.448;6.674;2023-01-01T15:25:21;17.70;51.10
33105;DHT22;19476;51.448;6.674;2023-01-01T15:27:50;17.70;51.10
33105;DHT22;19476;51.448;6.674;2023-01-01T15:30:31;17.70;51.20
33105;DHT22;19476;51.448;6.674;2023-01-01T15:33:06;17.70;51.20
33105;DHT22;19476;51.448;6.674;2023-01-01T15:35:34;17.70;51.20
33105;DHT22;19476;51.448;6.674;2023-01-01T15:38:11;17.70;51.20
33105;DHT22;19476;51.448;6.674;2023-01-01T15:40:39;17.70;51.30
33105;DHT22;19476;51.448;6.674;2023-01-01T15:43:32;17.70;51.20
33105;DHT22;19476;51.448;6.674;2023-01-01T15:46:21;17.60;51.20
33105;DHT22;19476;51.448;6.674;2023-01-01T15:48:50;17.60;51.20
33105;DHT22;19476;51.448;6.674;2023-01-01T15:51:27;17.60;51.30
33105;DHT22;19476;51.448;6.674;2023-01-01T15:53:59;17.60;51.40
33105;DHT22;19476;51.448;6.674;2023-01-01T15:56:28;17.60;51.40
33105;DHT22;19476;51.448;6.674;2023-01-01T16:01:41;17.60;51.60
33105;DHT22;19476;51.448;6.674;2023-01-01T16:04:25;17.60;51.60
33105;DHT22;19476;51.448;6.674;2023-01-01T16:06:53;17.60;51.80
33105;DHT22;19476;51.448;6.674;2023-01-01T16:09:20;17.60;51.70
33105;DHT22;19476;51.448;6.674;2023-01-01T16:11:51;17.60;51.70
33105;DHT22;19476;51.448;6.674;2023-01-01T16:14:17;17.60;51.80
33105;DHT22;19476;51.448;6.674;2023-01-01T16:16:49;17.50;51.70
33105;DHT22;19476;51.448;6.674;2023-01-01T16:19:17;17.50;52.00
33105;DHT22;19476;51.448;6.674;2023-01-01T16:21:43;17.50;52.00
33105;DHT22;19476;51.448;6.674;2023-01-01T16:24:15;17.50;52.00
33105;DHT22;19476;51.448;6.674;2023-01-01T16:26:40;17.50;52.40
33105;DHT22;19476;51.448;6.674;2023-01-01T16:29:06;17.50;52.60
33105;DHT22;19476;51.448;6.674;2023-01-01T16:31:32;17.50;52.40
33105;DHT22;19476;51.448;6.674;2023-01-01T16:33:58;17.40;52.60
33105;DHT22;19476;51.448;6.674;2023-01-01T16:36:25;17.40;52.80
33105;DHT22;19476;51.448;6.674;2023-01-01T16:38:56;17.40;53.00
33105;DHT22;19476;51.448;6.674;2023-01-01T16:41:23;17.30;53.30
33105;DHT22;19476;51.448;6.674;2023-01-01T16:43:50;17.30;53.50
33105;DHT22;19476;51.448;6.674;2023-01-01T16:46:15;17.30;53.60
33105;DHT22;19476;51.448;6.674;2023-01-01T16:48:41;17.30;53.80
33105;DHT22;19476;51.448;6.674;2023-01-01T16:51:19;17.30;54.10
33105;DHT22;19476;51.448;6.674;2023-01-01T16:53:45;17.20;55.20
33105;DHT22;19476;51.448;6.674;2023-01-01T16:56:12;17.20;54.60
33105;DHT22;19476;51.448;6.674;2023-01-01T16:58:38;17.20;55.30
33105;DHT22;19476;51.448;6.674;2023-01-01T17:01:04;17.10;55.30
33105;DHT22;19476;51.448;6.674;2023-01-01T17:03:30;17.10;55.60
33105;DHT22;19476;51.448;6.674;2023-01-01T17:05:56;17.00;55.70
33105;DHT22;19476;51.448;6.674;2023-01-01T17:08:22;17.00;56.20
33105;DHT22;19476;51.448;6.674;2023-01-01T17:10:48;16.90;56.50
33105;DHT22;19476;51.448;6.674;2023-01-01T17:13:14;16.80;56.50
33105;DHT22;19476;51.448;6.674;2023-01-01T17:15:40;16.80;56.70
33105;DHT22;19476;51.448;6.674;2023-01-01T17:18:05;16.80;56.80
33105;DHT22;19476;51.448;6.674;2023-01-01T17:20:33;16.70;57.20
33105;DHT22;19476;51.448;6.674;2023-01-01T17:22:59;16.70;57.50
33105;DHT22;19476;51.448;6.674;2023-01-01T17:25:25;16.70;57.50
33105;DHT22;19476;51.448;6.674;2023-01-01T17:27:50;16.60;57.70
33105;DHT22;19476;51.448;6.674;2023-01-01T17:30:16;16.60;57.70
33105;DHT22;19476;51.448;6.674;2023-01-01T17:32:42;16.60;57.80
33105;DHT22;19476;51.448;6.674;2023-01-01T17:35:08;16.60;57.80
33105;DHT22;19476;51.448;6.674;2023-01-01T17:37:34;16.60;57.90
33105;DHT22;19476;51.448;6.674;2023-01-01T17:40:00;16.60;58.00
33105;DHT22;19476;51.448;6.674;2023-01-01T17:42:26;16.30;58.00
33105;DHT22;19476;51.448;6.674;2023-01-01T17:44:51;16.60;58.30
33105;DHT22;19476;51.448;6.674;2023-01-01T17:47:17;16.60;58.30
33105;DHT22;19476;51.448;6.674;2023-01-01T17:49:43;16.50;58.30
33105;DHT22;19476;51.448;6.674;2023-01-01T17:52:09;16.50;58.40
33105;DHT22;19476;51.448;6.674;2023-01-01T17:54:35;16.50;58.50
33105;DHT22;19476;51.448;6.674;2023-01-01T17:57:01;16.50;58.60
33105;DHT22;19476;51.448;6.674;2023-01-01T17:59:29;16.50;58.70
33105;DHT22;19476;51.448;6.674;2023-01-01T18:01:57;16.50;58.80
33105;DHT22;19476;51.448;6.674;2023-01-01T18:04:23;16.40;58.90
33105;DHT22;19476;51.448;6.674;2023-01-01T18:06:48;16.40;59.00
33105;DHT22;19476;51.448;6.674;2023-01-01T18:09:14;16.40;59.20